sensor_id;sensor_type;location;lat;lon;timestamp;temperature;humidity
41290;DHT22;36117;46.680;11.154;2022-10-19T00:01:48;18.20;73.60
41290;DHT22;36117;46.680;11.154;2022-10-19T00:04:14;18.40;73.50
41290;DHT22;36117;46.680;11.154;2022-10-19T00:06:40;18.40;73.50
41290;DHT22;36117;46.680;11.154;2022-10-19T00:09:08;18.40;73.20
41290;DHT22;36117;46.680;11.154;2022-10-19T00:11:37;18.30;73.40
41290;DHT22;36117;46.680;11.154;2022-10-19T00:14:04;17.80;74.20
41290;DHT22;36117;46.680;11.154;2022-10-19T00:16:33;17.90;74.30
41290;DHT22;36117;46.680;11.154;2022-10-19T00:19:00;18.00;74.10
41290;DHT22;36117;46.680;11.154;2022-10-19T00:21:26;18.00;73.80
41290;DHT22;36117;46.680;11.154;2022-10-19T00:23:52;18.00;73.80
41290;DHT22;36117;46.680;11.154;2022-10-19T00:26:18;18.10;74.10
41290;DHT22;36117;46.680;11.154;2022-10-19T00:28:44;18.20;73.90
41290;DHT22;36117;46.680;11.154;2022-10-19T00:31:16;17.70;74.90
41290;DHT22;36117;46.680;11.154;2022-10-19T00:33:43;17.70;76.20
41290;DHT22;36117;46.680;11.154;2022-10-19T00:36:23;17.50;76.30
41290;DHT22;36117;46.680;11.154;2022-10-19T00:38:49;17.30;77.40
41290;DHT22;36117;46.680;11.154;2022-10-19T00:41:16;17.10;78.10
41290;DHT22;36117;46.680;11.154;2022-10-19T00:46:40;17.40;77.20
41290;DHT22;36117;46.680;11.154;2022-10-19T00:49:13;17.60;76.10
41290;DHT22;36117;46.680;11.154;2022-10-19T00:51:44;17.60;75.90
41290;DHT22;36117;46.680;11.154;2022-10-19T00:54:11;17.50;76.10
41290;DHT22;36117;46.680;11.154;2022-10-19T00:56:39;17.70;75.80
41290;DHT22;36117;46.680;11.154;2022-10-19T00:59:07;17.70;75.40
41290;DHT22;36117;46.680;11.154;2022-10-19T01:01:34;17.70;75.00
41290;DHT22;36117;46.680;11.154;2022-10-19T01:04:00;17.90;74.40
41290;DHT22;36117;46.680;11.154;2022-10-19T01:06:28;17.80;74.90
41290;DHT22;36117;46.680;11.154;2022-10-19T01:08:56;17.50;75.30
41290;DHT22;36117;46.680;11.154;2022-10-19T01:17:23;17.10;77.90
41290;DHT22;36117;46.680;11.154;2022-10-19T01:20:05;17.00;77.50
41290;DHT22;36117;46.680;11.154;2022-10-19T01:22:59;17.20;77.40
41290;DHT22;36117;46.680;11.154;2022-10-19T01:31:28;17.10;76.80
41290;DHT22;36117;46.680;11.154;2022-10-19T01:34:02;17.20;76.70
41290;DHT22;36117;46.680;11.154;2022-10-19T01:44:30;17.10;77.60
41290;DHT22;36117;46.680;11.154;2022-10-19T01:47:03;16.80;78.40
41290;DHT22;36117;46.680;11.154;2022-10-19T01:49:48;16.70;79.50
41290;DHT22;36117;46.680;11.154;2022-10-19T01:52:17;16.70;79.20
41290;DHT22;36117;46.680;11.154;2022-10-19T01:54:50;16.90;78.90
41290;DHT22;36117;46.680;11.154;2022-10-19T01:57:23;16.90;78.30
41290;DHT22;36117;46.680;11.154;2022-10-19T01:59:50;17.20;77.00
41290;DHT22;36117;46.680;11.154;2022-10-19T02:02:17;17.20;76.50
41290;DHT22;36117;46.680;11.154;2022-10-19T02:04:46;17.30;76.90
41290;DHT22;36117;46.680;11.154;2022-10-19T02:07:13;17.30;76.40
41290;DHT22;36117;46.680;11.154;2022-10-19T02:09:40;17.30;76.50
41290;DHT22;36117;46.680;11.154;2022-10-19T02:12:09;17.20;77.50
41290;DHT22;36117;46.680;11.154;2022-10-19T02:14:47;16.90;77.40
41290;DHT22;36117;46.680;11.154;2022-10-19T02:17:18;17.00;77.50
41290;DHT22;36117;46.680;11.154;2022-10-19T02:19:45;17.20;76.70
41290;DHT22;36117;46.680;11.154;2022-10-19T02:22:11;17.10;76.50
41290;DHT22;36117;46.680;11.154;2022-10-19T02:24:37;17.10;76.70
41290;DHT22;36117;46.680;11.154;2022-10-19T02:27:04;17.10;76.30
41290;DHT22;36117;46.680;11.154;2022-10-19T02:29:32;17.00;75.90
41290;DHT22;36117;46.680;11.154;2022-10-19T02:31:59;17.20;76.10
41290;DHT22;36117;46.680;11.154;2022-10-19T02:34:25;17.10;75.50
41290;DHT22;36117;46.680;11.154;2022-10-19T02:36:51;17.20;75.80
41290;DHT22;36117;46.680;11.154;2022-10-19T02:39:17;17.30;75.10
41290;DHT22;36117;46.680;11.154;2022-10-19T02:41:55;17.30;75.10
41290;DHT22;36117;46.680;11.154;2022-10-19T02:47:09;17.00;76.10
41290;DHT22;36117;46.680;11.154;2022-10-19T02:49:38;17.20;76.50
41290;DHT22;36117;46.680;11.154;2022-10-19T02:52:07;16.80;77.20
41290;DHT22;36117;46.680;11.154;2022-10-19T02:54:38;16.70;78.00
41290;DHT22;36117;46.680;11.154;2022-10-19T02:57:17;16.40;79.00
41290;DHT22;36117;46.680;11.154;2022-10-19T02:59:43;16.20;79.90
41290;DHT22;36117;46.680;11.154;2022-10-19T03:02:09;15.90;80.90
41290;DHT22;36117;46.680;11.154;2022-10-19T03:04:35;15.40;82.40
41290;DHT22;36117;46.680;11.154;2022-10-19T03:07:01;15.30;83.20
41290;DHT22;36117;46.680;11.154;2022-10-19T03:09:26;15.40;83.40
41290;DHT22;36117;46.680;11.154;2022-10-19T03:11:54;15.80;83.00
41290;DHT22;36117;46.680;11.154;2022-10-19T03:14:20;16.10;81.00
41290;DHT22;36117;46.680;11.154;2022-10-19T03:16:46;16.30;80.40
41290;DHT22;36117;46.680;11.154;2022-10-19T03:19:12;16.60;79.60
41290;DHT22;36117;46.680;11.154;2022-10-19T03:21:38;16.50;78.90
41290;DHT22;36117;46.680;11.154;2022-10-19T03:24:04;16.60;78.90
41290;DHT22;36117;46.680;11.154;2022-10-19T03:26:30;16.70;78.10
41290;DHT22;36117;46.680;11.154;2022-10-19T03:28:56;16.80;77.50
41290;DHT22;36117;46.680;11.154;2022-10-19T03:31:21;16.50;78.00
41290;DHT22;36117;46.680;11.154;2022-10-19T03:33:47;16.30;78.60
41290;DHT22;36117;46.680;11.154;2022-10-19T03:38:48;16.60;78.70
41290;DHT22;36117;46.680;11.154;2022-10-19T03:41:13;16.70;78.40
41290;DHT22;36117;46.680;11.154;2022-10-19T03:43:39;16.70;77.80
41290;DHT22;36117;46.680;11.154;2022-10-19T03:46:06;16.60;77.60
41290;DHT22;36117;46.680;11.154;2022-10-19T03:48:33;16.30;78.60
41290;DHT22;36117;46.680;11.154;2022-10-19T03:51:10;16.60;78.20
41290;DHT22;36117;46.680;11.154;2022-10-19T03:53:37;16.50;77.70
41290;DHT22;36117;46.680;11.154;2022-10-19T03:56:05;16.70;77.70
41290;DHT22;36117;46.680;11.154;2022-10-19T03:58:33;16.30;78.70
41290;DHT22;36117;46.680;11.154;2022-10-19T04:00:59;15.70;80.70
41290;DHT22;36117;46.680;11.154;2022-10-19T04:03:25;15.90;81.00
41290;DHT22;36117;46.680;11.154;2022-10-19T04:05:51;16.00;79.90
41290;DHT22;36117;46.680;11.154;2022-10-19T04:08:17;16.20;79.60
41290;DHT22;36117;46.680;11.154;2022-10-19T04:10:43;16.30;78.60
41290;DHT22;36117;46.680;11.154;2022-10-19T04:13:09;16.40;78.60
41290;DHT22;36117;46.680;11.154;2022-10-19T04:15:35;16.20;79.10
41290;DHT22;36117;46.680;11.154;2022-10-19T04:18:01;16.10;80.20
41290;DHT22;36117;46.680;11.154;2022-10-19T04:20:27;16.10;79.80
41290;DHT22;36117;46.680;11.154;2022-10-19T04:22:53;16.10;79.40
41290;DHT22;36117;46.680;11.154;2022-10-19T04:25:18;16.20;79.00
41290;DHT22;36117;46.680;11.154;2022-10-19T04:27:44;16.20;78.50
41290;DHT22;36117;46.680;11.154;2022-10-19T04:30:10;16.20;79.40
41290;DHT22;36117;46.680;11.154;2022-10-19T04:32:39;16.30;79.50
41290;DHT22;36117;46.680;11.154;2022-10-19T04:35:05;16.30;78.20
41290;DHT22;36117;46.680;11.154;2022-10-19T04:37:31;16.40;77.90
41290;DHT22;36117;46.680;11.154;2022-10-19T04:39:57;16.40;77.90
41290;DHT22;36117;46.680;11.154;2022-10-19T04:42:22;16.40;78.20
41290;DHT22;36117;46.680;11.154;2022-10-19T04:44:48;16.10;79.00
41290;DHT22;36117;46.680;11.154;2022-10-19T04:47:14;16.00;80.00
41290;DHT22;36117;46.680;11.154;2022-10-19T04:49:39;16.20;79.20
41290;DHT22;36117;46.680;11.154;2022-10-19T04:52:05;16.20;79.20
41290;DHT22;36117;46.680;11.154;2022-10-19T04:54:31;16.30;78.30
41290;DHT22;36117;46.680;11.154;2022-10-19T04:56:57;16.30;78.60
41290;DHT22;36117;46.680;11.154;2022-10-19T04:59:22;16.40;78.10
41290;DHT22;36117;46.680;11.154;2022-10-19T05:04:16;16.40;78.10
41290;DHT22;36117;46.680;11.154;2022-10-19T05:06:42;16.30;78.50
41290;DHT22;36117;46.680;11.154;2022-10-19T05:09:08;15.70;79.90
41290;DHT22;36117;46.680;11.154;2022-10-19T05:11:33;15.60;81.00
41290;DHT22;36117;46.680;11.154;2022-10-19T05:13:59;15.50;81.30
41290;DHT22;36117;46.680;11.154;2022-10-19T05:16:25;15.70;81.20
41290;DHT22;36117;46.680;11.154;2022-10-19T05:18:53;15.90;80.00
41290;DHT22;36117;46.680;11.154;2022-10-19T05:21:24;16.00;79.00
41290;DHT22;36117;46.680;11.154;2022-10-19T05:23:52;15.90;78.70
41290;DHT22;36117;46.680;11.154;2022-10-19T05:26:23;16.00;79.40
41290;DHT22;36117;46.680;11.154;2022-10-19T05:28:52;16.00;79.00
41290;DHT22;36117;46.680;11.154;2022-10-19T05:31:23;16.00;79.30
41290;DHT22;36117;46.680;11.154;2022-10-19T05:33:49;16.00;79.30
41290;DHT22;36117;46.680;11.154;2022-10-19T05:38:51;16.20;78.80
41290;DHT22;36117;46.680;11.154;2022-10-19T05:41:18;16.30;78.90
41290;DHT22;36117;46.680;11.154;2022-10-19T05:43:45;16.40;78.00
41290;DHT22;36117;46.680;11.154;2022-10-19T05:46:14;16.40;77.80
41290;DHT22;36117;46.680;11.154;2022-10-19T05:48:44;16.30;78.10
41290;DHT22;36117;46.680;11.154;2022-10-19T05:51:12;16.20;78.30
41290;DHT22;36117;46.680;11.154;2022-10-19T05:53:39;16.10;78.80
41290;DHT22;36117;46.680;11.154;2022-10-19T05:56:06;16.30;78.30
41290;DHT22;36117;46.680;11.154;2022-10-19T05:58:33;16.40;76.80
41290;DHT22;36117;46.680;11.154;2022-10-19T06:01:00;16.10;77.90
41290;DHT22;36117;46.680;11.154;2022-10-19T06:03:27;15.70;79.60
41290;DHT22;36117;46.680;11.154;2022-10-19T06:05:53;15.70;80.00
41290;DHT22;36117;46.680;11.154;2022-10-19T06:08:20;15.60;80.60
41290;DHT22;36117;46.680;11.154;2022-10-19T06:10:47;15.60;80.20
41290;DHT22;36117;46.680;11.154;2022-10-19T06:13:14;15.80;80.00
41290;DHT22;36117;46.680;11.154;2022-10-19T06:15:40;15.90;80.10
41290;DHT22;36117;46.680;11.154;2022-10-19T06:18:07;16.10;79.00
41290;DHT22;36117;46.680;11.154;2022-10-19T06:20:37;16.10;78.20
41290;DHT22;36117;46.680;11.154;2022-10-19T06:23:04;16.20;78.00
41290;DHT22;36117;46.680;11.154;2022-10-19T06:25:31;16.40;77.50
41290;DHT22;36117;46.680;11.154;2022-10-19T06:27:57;16.50;76.70
41290;DHT22;36117;46.680;11.154;2022-10-19T06:30:23;16.60;76.40
41290;DHT22;36117;46.680;11.154;2022-10-19T06:32:49;16.60;76.10
41290;DHT22;36117;46.680;11.154;2022-10-19T06:35:15;16.60;76.10
41290;DHT22;36117;46.680;11.154;2022-10-19T06:37:41;16.30;77.10
41290;DHT22;36117;46.680;11.154;2022-10-19T06:40:08;16.10;78.50
41290;DHT22;36117;46.680;11.154;2022-10-19T06:42:35;15.90;79.30
41290;DHT22;36117;46.680;11.154;2022-10-19T06:45:07;15.70;80.00
41290;DHT22;36117;46.680;11.154;2022-10-19T06:47:34;15.70;80.20
41290;DHT22;36117;46.680;11.154;2022-10-19T06:50:00;15.70;80.00
41290;DHT22;36117;46.680;11.154;2022-10-19T06:52:26;16.20;78.70
41290;DHT22;36117;46.680;11.154;2022-10-19T06:54:52;16.50;78.00
41290;DHT22;36117;46.680;11.154;2022-10-19T06:57:17;16.70;76.50
41290;DHT22;36117;46.680;11.154;2022-10-19T06:59:43;17.00;75.90
41290;DHT22;36117;46.680;11.154;2022-10-19T07:02:12;17.10;75.50
41290;DHT22;36117;46.680;11.154;2022-10-19T07:04:38;17.10;74.90
41290;DHT22;36117;46.680;11.154;2022-10-19T07:07:04;16.90;76.10
41290;DHT22;36117;46.680;11.154;2022-10-19T07:09:30;16.80;76.60
41290;DHT22;36117;46.680;11.154;2022-10-19T07:11:56;17.30;76.70
41290;DHT22;36117;46.680;11.154;2022-10-19T07:14:21;18.10;74.40
41290;DHT22;36117;46.680;11.154;2022-10-19T07:16:53;19.20;71.70
41290;DHT22;36117;46.680;11.154;2022-10-19T07:19:19;19.90;68.30
41290;DHT22;36117;46.680;11.154;2022-10-19T07:21:48;20.90;65.90
41290;DHT22;36117;46.680;11.154;2022-10-19T07:24:14;21.80;63.30
41290;DHT22;36117;46.680;11.154;2022-10-19T07:26:40;22.70;60.10
41290;DHT22;36117;46.680;11.154;2022-10-19T07:29:06;23.30;57.80
41290;DHT22;36117;46.680;11.154;2022-10-19T07:31:32;23.70;56.00
41290;DHT22;36117;46.680;11.154;2022-10-19T07:34:00;24.20;54.10
41290;DHT22;36117;46.680;11.154;2022-10-19T07:36:27;24.60;53.70
41290;DHT22;36117;46.680;11.154;2022-10-19T07:38:54;24.60;52.60
41290;DHT22;36117;46.680;11.154;2022-10-19T07:41:22;24.90;52.30
41290;DHT22;36117;46.680;11.154;2022-10-19T07:43:48;25.10;50.90
41290;DHT22;36117;46.680;11.154;2022-10-19T07:46:17;25.50;49.20
41290;DHT22;36117;46.680;11.154;2022-10-19T07:48:43;25.90;48.70
41290;DHT22;36117;46.680;11.154;2022-10-19T07:51:10;26.50;47.60
41290;DHT22;36117;46.680;11.154;2022-10-19T07:53:37;26.80;46.80
41290;DHT22;36117;46.680;11.154;2022-10-19T07:56:09;27.10;45.90
41290;DHT22;36117;46.680;11.154;2022-10-19T07:58:36;26.90;45.50
41290;DHT22;36117;46.680;11.154;2022-10-19T08:01:05;27.50;45.40
41290;DHT22;36117;46.680;11.154;2022-10-19T08:03:32;28.20;44.20
41290;DHT22;36117;46.680;11.154;2022-10-19T08:05:59;28.40;43.50
41290;DHT22;36117;46.680;11.154;2022-10-19T08:08:25;28.90;43.10
41290;DHT22;36117;46.680;11.154;2022-10-19T08:10:51;29.10;42.00
41290;DHT22;36117;46.680;11.154;2022-10-19T08:13:17;29.30;41.10
41290;DHT22;36117;46.680;11.154;2022-10-19T08:15:43;29.70;40.70
41290;DHT22;36117;46.680;11.154;2022-10-19T08:18:08;30.00;40.40
41290;DHT22;36117;46.680;11.154;2022-10-19T08:20:36;30.00;39.90
41290;DHT22;36117;46.680;11.154;2022-10-19T08:23:02;30.10;39.90
41290;DHT22;36117;46.680;11.154;2022-10-19T08:25:27;30.00;39.90
41290;DHT22;36117;46.680;11.154;2022-10-19T08:27:53;30.20;39.70
41290;DHT22;36117;46.680;11.154;2022-10-19T08:30:19;30.90;38.50
41290;DHT22;36117;46.680;11.154;2022-10-19T08:32:45;31.10;38.10
41290;DHT22;36117;46.680;11.154;2022-10-19T08:35:11;31.80;37.60
41290;DHT22;36117;46.680;11.154;2022-10-19T08:37:39;31.70;37.00
41290;DHT22;36117;46.680;11.154;2022-10-19T08:40:07;31.60;37.10
41290;DHT22;36117;46.680;11.154;2022-10-19T08:42:56;32.70;36.40
41290;DHT22;36117;46.680;11.154;2022-10-19T08:45:57;32.50;35.50
41290;DHT22;36117;46.680;11.154;2022-10-19T08:48:30;32.40;35.50
41290;DHT22;36117;46.680;11.154;2022-10-19T08:50:58;32.90;35.40
41290;DHT22;36117;46.680;11.154;2022-10-19T08:56:33;32.30;35.00
41290;DHT22;36117;46.680;11.154;2022-10-19T09:01:53;33.30;34.40
41290;DHT22;36117;46.680;11.154;2022-10-19T09:04:30;33.90;34.50
41290;DHT22;36117;46.680;11.154;2022-10-19T09:09:24;33.90;33.20
41290;DHT22;36117;46.680;11.154;2022-10-19T09:11:53;33.50;33.40
41290;DHT22;36117;46.680;11.154;2022-10-19T09:17:13;34.40;33.50
41290;DHT22;36117;46.680;11.154;2022-10-19T09:19:40;34.30;33.10
41290;DHT22;36117;46.680;11.154;2022-10-19T09:22:28;33.00;33.60
41290;DHT22;36117;46.680;11.154;2022-10-19T09:24:58;33.30;33.70
41290;DHT22;36117;46.680;11.154;2022-10-19T09:27:30;33.80;33.10
41290;DHT22;36117;46.680;11.154;2022-10-19T09:30:02;34.70;32.30
41290;DHT22;36117;46.680;11.154;2022-10-19T09:32:37;34.50;32.20
41290;DHT22;36117;46.680;11.154;2022-10-19T09:35:06;34.40;32.80
41290;DHT22;36117;46.680;11.154;2022-10-19T09:37:43;35.20;31.80
41290;DHT22;36117;46.680;11.154;2022-10-19T09:40:22;35.80;31.00
41290;DHT22;36117;46.680;11.154;2022-10-19T09:42:48;34.70;31.70
41290;DHT22;36117;46.680;11.154;2022-10-19T09:48:32;35.80;31.90
41290;DHT22;36117;46.680;11.154;2022-10-19T09:51:02;36.30;31.40
41290;DHT22;36117;46.680;11.154;2022-10-19T09:53:35;36.70;31.30
41290;DHT22;36117;46.680;11.154;2022-10-19T09:56:07;36.80;30.90
41290;DHT22;36117;46.680;11.154;2022-10-19T09:58:51;37.30;30.80
41290;DHT22;36117;46.680;11.154;2022-10-19T10:01:35;37.00;30.30
41290;DHT22;36117;46.680;11.154;2022-10-19T10:04:14;36.80;30.60
41290;DHT22;36117;46.680;11.154;2022-10-19T10:06:43;36.30;30.80
41290;DHT22;36117;46.680;11.154;2022-10-19T10:09:23;36.10;30.70
41290;DHT22;36117;46.680;11.154;2022-10-19T10:11:52;35.10;30.90
41290;DHT22;36117;46.680;11.154;2022-10-19T10:14:20;34.10;32.10
41290;DHT22;36117;46.680;11.154;2022-10-19T10:16:46;34.40;33.10
41290;DHT22;36117;46.680;11.154;2022-10-19T10:19:14;33.80;33.40
41290;DHT22;36117;46.680;11.154;2022-10-19T10:26:51;33.10;33.10
41290;DHT22;36117;46.680;11.154;2022-10-19T10:31:51;34.00;32.60
41290;DHT22;36117;46.680;11.154;2022-10-19T10:34:25;33.50;32.10
41290;DHT22;36117;46.680;11.154;2022-10-19T10:36:55;34.10;32.50
41290;DHT22;36117;46.680;11.154;2022-10-19T10:39:22;33.80;31.90
41290;DHT22;36117;46.680;11.154;2022-10-19T10:41:52;34.40;31.70
41290;DHT22;36117;46.680;11.154;2022-10-19T10:44:23;34.10;31.70
41290;DHT22;36117;46.680;11.154;2022-10-19T10:46:54;33.60;31.10
41290;DHT22;36117;46.680;11.154;2022-10-19T10:49:27;34.80;31.60
41290;DHT22;36117;46.680;11.154;2022-10-19T10:51:59;34.60;30.80
41290;DHT22;36117;46.680;11.154;2022-10-19T10:54:29;34.40;31.90
41290;DHT22;36117;46.680;11.154;2022-10-19T10:57:09;33.80;32.00
41290;DHT22;36117;46.680;11.154;2022-10-19T10:59:48;33.90;32.10
41290;DHT22;36117;46.680;11.154;2022-10-19T11:05:17;32.80;32.40
41290;DHT22;36117;46.680;11.154;2022-10-19T11:07:46;33.10;32.70
41290;DHT22;36117;46.680;11.154;2022-10-19T11:10:27;33.50;32.30
41290;DHT22;36117;46.680;11.154;2022-10-19T11:16:12;32.70;32.80
41290;DHT22;36117;46.680;11.154;2022-10-19T11:18:54;32.30;33.20
41290;DHT22;36117;46.680;11.154;2022-10-19T11:21:46;31.50;34.00
41290;DHT22;36117;46.680;11.154;2022-10-19T11:27:17;31.50;34.50
41290;DHT22;36117;46.680;11.154;2022-10-19T11:36:01;31.30;35.10
41290;DHT22;36117;46.680;11.154;2022-10-19T11:38:54;31.20;34.60
41290;DHT22;36117;46.680;11.154;2022-10-19T11:41:36;31.30;35.70
41290;DHT22;36117;46.680;11.154;2022-10-19T11:53:11;31.70;34.40
41290;DHT22;36117;46.680;11.154;2022-10-19T11:55:56;31.90;33.20
41290;DHT22;36117;46.680;11.154;2022-10-19T12:07:03;30.90;35.20
41290;DHT22;36117;46.680;11.154;2022-10-19T12:09:53;30.30;35.70
41290;DHT22;36117;46.680;11.154;2022-10-19T12:12:35;30.30;36.00
41290;DHT22;36117;46.680;11.154;2022-10-19T12:17:37;30.30;36.30
41290;DHT22;36117;46.680;11.154;2022-10-19T12:20:14;29.90;35.60
41290;DHT22;36117;46.680;11.154;2022-10-19T12:22:42;30.00;36.20
41290;DHT22;36117;46.680;11.154;2022-10-19T12:25:12;29.80;36.70
41290;DHT22;36117;46.680;11.154;2022-10-19T12:27:40;29.60;36.90
41290;DHT22;36117;46.680;11.154;2022-10-19T12:30:26;29.90;36.80
41290;DHT22;36117;46.680;11.154;2022-10-19T12:33:05;30.00;36.40
41290;DHT22;36117;46.680;11.154;2022-10-19T12:35:52;29.90;36.70
41290;DHT22;36117;46.680;11.154;2022-10-19T12:41:05;29.90;36.40
41290;DHT22;36117;46.680;11.154;2022-10-19T12:43:44;29.90;36.10
41290;DHT22;36117;46.680;11.154;2022-10-19T12:49:43;30.00;36.20
41290;DHT22;36117;46.680;11.154;2022-10-19T12:52:10;29.80;36.40
41290;DHT22;36117;46.680;11.154;2022-10-19T12:54:38;30.10;36.30
41290;DHT22;36117;46.680;11.154;2022-10-19T12:57:25;30.10;36.30
41290;DHT22;36117;46.680;11.154;2022-10-19T13:00:17;29.90;36.30
41290;DHT22;36117;46.680;11.154;2022-10-19T13:02:44;30.10;36.30
41290;DHT22;36117;46.680;11.154;2022-10-19T13:05:23;30.10;35.80
41290;DHT22;36117;46.680;11.154;2022-10-19T13:07:51;29.80;36.20
41290;DHT22;36117;46.680;11.154;2022-10-19T13:10:23;29.50;37.00
41290;DHT22;36117;46.680;11.154;2022-10-19T13:12:49;29.10;37.70
41290;DHT22;36117;46.680;11.154;2022-10-19T13:18:09;29.30;37.40
41290;DHT22;36117;46.680;11.154;2022-10-19T13:25:34;28.90;38.20
41290;DHT22;36117;46.680;11.154;2022-10-19T13:33:44;28.60;37.80
41290;DHT22;36117;46.680;11.154;2022-10-19T13:36:11;28.60;38.50
41290;DHT22;36117;46.680;11.154;2022-10-19T13:39:01;28.40;38.00
41290;DHT22;36117;46.680;11.154;2022-10-19T14:00:25;28.00;39.30
41290;DHT22;36117;46.680;11.154;2022-10-19T14:13:45;27.70;40.90
41290;DHT22;36117;46.680;11.154;2022-10-19T14:16:18;27.80;41.00
41290;DHT22;36117;46.680;11.154;2022-10-19T14:18:52;28.00;40.90
41290;DHT22;36117;46.680;11.154;2022-10-19T14:21:29;28.30;40.40
41290;DHT22;36117;46.680;11.154;2022-10-19T14:23:55;28.20;40.10
41290;DHT22;36117;46.680;11.154;2022-10-19T14:26:23;27.90;39.60
41290;DHT22;36117;46.680;11.154;2022-10-19T14:28:54;27.90;39.50
41290;DHT22;36117;46.680;11.154;2022-10-19T14:31:33;28.00;40.00
41290;DHT22;36117;46.680;11.154;2022-10-19T14:34:01;27.80;39.80
41290;DHT22;36117;46.680;11.154;2022-10-19T14:36:36;27.70;40.00
41290;DHT22;36117;46.680;11.154;2022-10-19T14:39:03;27.30;40.70
41290;DHT22;36117;46.680;11.154;2022-10-19T14:41:31;27.00;41.40
41290;DHT22;36117;46.680;11.154;2022-10-19T14:43:58;26.80;41.60
41290;DHT22;36117;46.680;11.154;2022-10-19T14:46:28;26.60;41.70
41290;DHT22;36117;46.680;11.154;2022-10-19T14:49:02;26.70;41.90
41290;DHT22;36117;46.680;11.154;2022-10-19T14:51:51;26.70;41.80
41290;DHT22;36117;46.680;11.154;2022-10-19T14:54:34;26.50;41.50
41290;DHT22;36117;46.680;11.154;2022-10-19T14:57:14;26.60;41.90
41290;DHT22;36117;46.680;11.154;2022-10-19T14:59:52;26.70;41.10
41290;DHT22;36117;46.680;11.154;2022-10-19T15:02:26;26.80;41.80
41290;DHT22;36117;46.680;11.154;2022-10-19T15:04:54;26.70;41.20
41290;DHT22;36117;46.680;11.154;2022-10-19T15:07:41;26.70;42.10
41290;DHT22;36117;46.680;11.154;2022-10-19T15:10:18;26.70;41.70
41290;DHT22;36117;46.680;11.154;2022-10-19T15:12:46;26.70;41.20
41290;DHT22;36117;46.680;11.154;2022-10-19T15:15:33;26.70;41.20
41290;DHT22;36117;46.680;11.154;2022-10-19T15:20:30;26.90;41.70
41290;DHT22;36117;46.680;11.154;2022-10-19T15:22:56;26.70;41.90
41290;DHT22;36117;46.680;11.154;2022-10-19T15:25:24;26.90;41.50
41290;DHT22;36117;46.680;11.154;2022-10-19T15:27:51;27.00;42.40
41290;DHT22;36117;46.680;11.154;2022-10-19T15:32:49;26.90;43.50
41290;DHT22;36117;46.680;11.154;2022-10-19T15:35:23;26.80;44.30
41290;DHT22;36117;46.680;11.154;2022-10-19T15:37:59;26.70;44.30
41290;DHT22;36117;46.680;11.154;2022-10-19T15:40:35;26.50;44.10
41290;DHT22;36117;46.680;11.154;2022-10-19T15:53:51;25.90;47.50
41290;DHT22;36117;46.680;11.154;2022-10-19T15:56:17;25.80;47.20
41290;DHT22;36117;46.680;11.154;2022-10-19T15:58:43;25.70;47.40
41290;DHT22;36117;46.680;11.154;2022-10-19T16:01:20;25.50;47.60
41290;DHT22;36117;46.680;11.154;2022-10-19T16:03:51;25.40;48.70
41290;DHT22;36117;46.680;11.154;2022-10-19T16:06:18;25.30;48.60
41290;DHT22;36117;46.680;11.154;2022-10-19T16:08:44;25.20;48.90
41290;DHT22;36117;46.680;11.154;2022-10-19T16:11:14;24.90;49.30
41290;DHT22;36117;46.680;11.154;2022-10-19T16:13:41;24.80;50.40
41290;DHT22;36117;46.680;11.154;2022-10-19T16:16:09;24.70;51.30
41290;DHT22;36117;46.680;11.154;2022-10-19T16:18:35;24.30;51.90
41290;DHT22;36117;46.680;11.154;2022-10-19T16:21:01;23.90;52.70
41290;DHT22;36117;46.680;11.154;2022-10-19T16:23:27;23.80;53.50
41290;DHT22;36117;46.680;11.154;2022-10-19T16:25:55;23.40;53.20
41290;DHT22;36117;46.680;11.154;2022-10-19T16:28:21;23.20;53.70
41290;DHT22;36117;46.680;11.154;2022-10-19T16:30:53;22.90;53.60
41290;DHT22;36117;46.680;11.154;2022-10-19T16:33:19;22.60;54.30
41290;DHT22;36117;46.680;11.154;2022-10-19T16:35:45;22.80;55.20
41290;DHT22;36117;46.680;11.154;2022-10-19T16:38:11;22.90;55.10
41290;DHT22;36117;46.680;11.154;2022-10-19T16:40:37;22.80;53.20
41290;DHT22;36117;46.680;11.154;2022-10-19T16:43:03;22.60;53.00
41290;DHT22;36117;46.680;11.154;2022-10-19T16:45:29;22.50;53.80
41290;DHT22;36117;46.680;11.154;2022-10-19T16:47:55;22.10;54.10
41290;DHT22;36117;46.680;11.154;2022-10-19T16:50:21;22.00;55.00
41290;DHT22;36117;46.680;11.154;2022-10-19T16:52:55;21.80;56.30
41290;DHT22;36117;46.680;11.154;2022-10-19T16:55:27;21.80;55.70
41290;DHT22;36117;46.680;11.154;2022-10-19T16:57:54;21.80;56.30
41290;DHT22;36117;46.680;11.154;2022-10-19T17:02:55;21.80;56.60
41290;DHT22;36117;46.680;11.154;2022-10-19T17:05:21;21.90;56.40
41290;DHT22;36117;46.680;11.154;2022-10-19T17:07:47;21.80;56.10
41290;DHT22;36117;46.680;11.154;2022-10-19T17:10:13;21.90;55.20
41290;DHT22;36117;46.680;11.154;2022-10-19T17:12:39;22.00;56.20
41290;DHT22;36117;46.680;11.154;2022-10-19T17:15:06;22.40;56.10
41290;DHT22;36117;46.680;11.154;2022-10-19T17:17:32;22.70;55.80
41290;DHT22;36117;46.680;11.154;2022-10-19T17:19:58;22.90;55.30
41290;DHT22;36117;46.680;11.154;2022-10-19T17:22:23;22.80;56.50
41290;DHT22;36117;46.680;11.154;2022-10-19T17:24:49;22.90;56.00
41290;DHT22;36117;46.680;11.154;2022-10-19T17:27:15;22.50;57.20
41290;DHT22;36117;46.680;11.154;2022-10-19T17:29:41;22.30;58.10
41290;DHT22;36117;46.680;11.154;2022-10-19T17:32:07;22.00;59.10
41290;DHT22;36117;46.680;11.154;2022-10-19T17:34:33;21.70;59.90
41290;DHT22;36117;46.680;11.154;2022-10-19T17:36:59;21.70;60.00
41290;DHT22;36117;46.680;11.154;2022-10-19T17:39:25;21.70;58.30
41290;DHT22;36117;46.680;11.154;2022-10-19T17:41:51;21.80;58.30
41290;DHT22;36117;46.680;11.154;2022-10-19T17:44:19;21.90;59.40
41290;DHT22;36117;46.680;11.154;2022-10-19T17:46:45;22.00;57.90
41290;DHT22;36117;46.680;11.154;2022-10-19T17:49:12;21.90;58.80
41290;DHT22;36117;46.680;11.154;2022-10-19T17:51:39;22.10;59.70
41290;DHT22;36117;46.680;11.154;2022-10-19T17:54:08;22.00;59.70
41290;DHT22;36117;46.680;11.154;2022-10-19T17:56:36;21.80;59.80
41290;DHT22;36117;46.680;11.154;2022-10-19T17:59:03;21.70;60.70
41290;DHT22;36117;46.680;11.154;2022-10-19T18:01:32;21.70;60.90
41290;DHT22;36117;46.680;11.154;2022-10-19T18:03:57;21.50;61.50
41290;DHT22;36117;46.680;11.154;2022-10-19T18:06:36;21.40;62.10
41290;DHT22;36117;46.680;11.154;2022-10-19T18:09:05;21.60;61.50